Las Vegas, Nevada (DRI) Weather observations

Data are for observation ending at time listed.
 Day   Time    Ave.   Ave.  Ave.  Vector   Max.   Stn.    Total    Solar   Ave.  
  of    of     Air    Rel.  Wind   Wind    Wind   Baro.  Precip.   Rad.    Soil  
Year   Day     Temp.  Hum.  Speed  Dir.    Gust   Pres.                    Temp. 
2015   (PST)    F      %     mph   deg.    mph     mb.     in.     W/m2     F   
------------------------------------------------------------------------------
  64   12:40   61.9    20    1.5   179      4.7   955.8    0.00     865    57.3
  64   12:50   61.6    21    1.8    19      6.6   955.6    0.00     856    57.6
  64   13:00   61.6    22    2.4    45      6.5   955.5    0.00     845    57.8
  64   13:10   61.3    22    1.4    52      4.7   955.4    0.00     833    58.1
  64   13:20   62.5    21    2.5    51      7.7   955.3    0.00     820    58.4
  64   13:30   61.8    21    2.1    38      7.0   955.2    0.00     805    58.7
  64   13:40   62.0    20    1.5    51      3.5   955.1    0.00     789    59.0
  64   13:50   62.9    20    1.7    26      4.7   955.0    0.00     769    59.3
  64   14:00   63.3    20    2.1    34      4.8   954.8    0.00     747    59.6
  64   14:10   63.9    20    1.8    42      4.9   954.6    0.00     723    59.9
  64   14:20   64.1    19    2.0    46      5.8   954.6    0.00     697    60.2
  64   14:30   64.9    18    2.0    34      4.9   954.5    0.00     670    60.6
  64   14:40   64.1    19    1.3    45      4.9   954.5    0.00     646    60.9
  64   14:50   67.2    17    0.9   235      3.0   954.4    0.00     616    61.2
  64   15:00   66.9    18    1.5    20      5.5   954.3    0.00     586    61.5
  64   15:10   65.6    18    2.4    35      5.4   954.2    0.00     551    61.8
  64   15:20   65.0    19    2.0    44      5.7   954.2    0.00     516    62.1
  64   15:30   65.9    19    0.8    59      4.5   954.0    0.00     480    62.3
  64   15:40   65.6    20    1.7    29      4.0   954.0    0.00     446    62.6
  64   15:50   67.0    19    1.6   359      4.2   953.9    0.00     410    62.9
  64   16:00   65.3    20    2.7    40      5.8   953.9    0.00     371    63.1
  64   16:10   65.5    20    2.3    39      4.2   953.9    0.00     333    63.3
  64   16:20   65.7    20    1.1     9      3.6   953.9    0.00     295    63.5
  64   16:30   66.7    20    1.1    36      3.8   953.9    0.00     257    63.7
  64   16:40   65.4    21    2.1    47      4.5   953.9    0.00     217    63.9
  64   16:50   64.9    21    0.9    48      3.6   953.9    0.00     177    64.0
  64   17:00   64.9    21    1.4    49      4.5   953.9    0.00     140    64.1
  64   17:10   64.7    21    1.2    30      4.2   953.9    0.00     102    64.3
  64   17:20   63.8    22    0.5    42      1.9   953.9    0.00      37    64.4
  64   17:30   63.5    22    0.7     7      2.2   953.9    0.00      15    64.5
  64   17:40   62.8    22    0.5    52      2.7   954.0    0.00       9    64.5
  64   17:50   62.4    23    0.1    45      1.0   954.1    0.00       4    64.6
  64   18:00   61.9    24    0.0     0      0.0   954.1    0.00       3    64.7
  64   18:10   61.3    24    0.0     0      0.0   954.2    0.00       0    64.7
  64   18:20   61.2    24    0.0    34      0.8   954.2    0.00       0    64.7
  64   18:30   61.4    24    0.2    52      1.5   954.3    0.00       0    64.7
  64   18:40   61.4    24    0.6    58      2.8   954.4    0.00       0    64.7
  64   18:50   61.1    24    0.3    54      2.4   954.5    0.00       0    64.6
  64   19:00   60.4    26    0.0     0      0.0   954.5    0.00       0    64.6
  64   19:10   59.3    29    0.0     0      0.0   954.5    0.00       0    64.6
  64   19:20   58.4    30    0.0     0      0.0   954.5    0.00       0    64.5
  64   19:30   57.6    31    0.0     0      0.0   954.6    0.00       0    64.5
  64   19:40   57.2    31    0.0     0      0.0   954.6    0.00       0    64.4
  64   19:50   57.3    31    0.0    73      0.7   954.6    0.00       0    64.4
  64   20:00   57.5    31    0.0     0      0.0   954.6    0.00       0    64.3
  64   20:10   57.0    33    0.0     0      0.0   954.7    0.00       0    64.2
  64   20:20   56.6    32    0.0     0      0.0   954.8    0.00       0    64.2
  64   20:30   56.0    33    0.0     0      0.0   954.9    0.00       0    64.1
  64   20:40   55.5    35    0.0     0      0.0   954.9    0.00       0    64.0
  64   20:50   55.2    34    0.0     0      0.0   954.9    0.00       0    63.9
  64   21:00   55.6    33    0.0     0      0.0   954.9    0.00       0    63.8
  64   21:10   55.7    32    0.0     0      0.0   954.9    0.00       0    63.8
  64   21:20   56.3    32    0.0    38      0.4   954.9    0.00       0    63.6
  64   21:30   55.5    34    0.0     0      0.0   955.0    0.00       0    63.6
  64   21:40   54.3    38    0.0     0      0.0   955.0    0.00       0    63.5
  64   21:50   54.1    38    0.0     0      0.0   955.0    0.00       0    63.4
  64   22:00   54.0    40    0.0     0      0.0   955.0    0.00       0    63.3
  64   22:10   54.2    41    0.5   186      2.1   955.0    0.00       0    63.2
  64   22:20   54.7    42    0.4   193      2.3   954.9    0.00       0    63.1
  64   22:30   54.8    41    0.4   265      2.6   954.9    0.00       0    63.0
  64   22:40   54.6    42    0.0     0      0.0   954.9    0.00       0    62.9
  64   22:50   53.8    44    0.0     0      0.0   954.9    0.00       0    62.8
  64   23:00   52.9    46    0.0     0      0.0   954.9    0.00       0    62.7
  64   23:10   52.7    46    0.0     0      0.0   954.9    0.00       0    62.6
  64   23:20   52.1    46    0.0     0      0.0   954.9    0.00       0    62.5
  64   23:30   52.3    45    0.2    39      1.2   954.8    0.00       0    62.4
  64   23:40   51.9    46    0.0     0      0.0   954.7    0.00       0    62.3
  64   23:50   50.8    48    0.0     0      0.0   954.6    0.00       0    62.2
  65    0:00   50.3    50    0.0     0      0.0   954.6    0.00       0    62.2
  65    0:10   50.5    49    0.0    20      0.3   954.5    0.00       0    62.1
  65    0:20   50.8    48    0.0     0      0.0   954.5    0.00       0    62.0
  65    0:30   50.3    50    0.0     0      0.0   954.5    0.00       0    61.9
  65    0:40   49.8    51    0.0     0      0.0   954.5    0.00       0    61.8
  65    0:50   49.3    52    0.0     0      0.0   954.5    0.00       0    61.7
  65    1:00   49.2    52    0.0     0      0.0   954.5    0.00       0    61.6
  65    1:10   49.1    52    0.0     0      0.0   954.5    0.00       0    61.5
  65    1:20   48.9    52    0.0     0      0.0   954.5    0.00       0    61.4
  65    1:30   48.7    53    0.0     0      0.0   954.5    0.00       0    61.3
  65    1:40   48.4    54    0.2   167      2.2   954.5    0.00       0    61.2
  65    1:50   48.2    54    0.0     0      0.0   954.5    0.00       0    61.1
  65    2:00   47.8    55    0.0     0      0.0   954.4    0.00       0    61.0
  65    2:10   47.8    55    0.0     0      0.0   954.3    0.00       0    60.9
  65    2:20   48.4    54    0.0     0      0.0   954.2    0.00       0    60.8
  65    2:30   47.9    55    0.0     0      0.0   954.1    0.00       0    60.7
  65    2:40   48.1    55    0.0   158      0.8   954.1    0.00       0    60.7
  65    2:50   47.8    56    0.3   162      1.9   954.1    0.00       0    60.6
  65    3:00   46.8    59    0.6   164      1.8   954.1    0.00       0    60.5
  65    3:10   46.9    57    0.6   178      1.7   954.0    0.00       0    60.4
  65    3:20   47.2    55    0.3   163      1.5   953.9    0.00       0    60.3
  65    3:30   47.3    54    0.4   164      1.8   953.9    0.00       0    60.2
  65    3:40   47.1    54    1.1   167      2.9   953.9    0.00       0    60.1
  65    3:50   47.1    55    1.3   181      2.9   953.9    0.00       0    60.0
  65    4:00   46.9    55    0.4   179      1.8   953.9    0.00       0    60.0
  65    4:10   46.8    56    0.0     0      0.0   953.9    0.00       0    59.9
  65    4:20   46.2    58    0.0     0      0.0   953.9    0.00       0    59.8
  65    4:30   46.0    59    0.0     0      0.0   954.0    0.00       0    59.7
  65    4:40   46.4    58    0.0     0      0.0   954.1    0.00       0    59.6
  65    4:50   46.4    57    0.0     0      0.0   954.1    0.00       0    59.5
  65    5:00   45.6    59    0.0     0      0.0   954.2    0.00       0    59.5
  65    5:10   45.7    58    1.2   171      2.9   954.4    0.00       0    59.4
  65    5:20   46.0    58    0.4   187      3.3   954.5    0.00       0    59.3
  65    5:30   45.7    58    0.4   178      2.0   954.6    0.00       0    59.2
  65    5:40   45.6    58    2.1   165      4.1   954.7    0.00       0    59.1
  65    5:50   45.7    56    1.2   163      2.2   954.7    0.00       0    59.0
  65    6:00   45.9    56    1.0   166      2.3   954.7    0.00       2    58.9
  65    6:10   45.2    58    0.0   181      0.8   954.7    0.00       4    58.9
  65    6:20   45.7    57    0.2   181      1.6   954.7    0.00      10    58.8
  65    6:30   46.0    56    1.9   164      3.1   954.8    0.00      13    58.7
  65    6:40   46.7    54    0.4   154      2.2   954.9    0.00      18    58.6
  65    6:50   47.2    53    1.1   171      2.8   955.1    0.00      19    58.5
  65    7:00   47.7    52    0.0     0      0.0   955.2    0.00      25    58.4
  65    7:10   49.3    44    0.4     2      2.3   955.3    0.00      25    58.4
  65    7:20   50.5    39    0.4   326      2.4   955.3    0.00      27    58.3
  65    7:30   51.2    38    0.7   351      2.3   955.4    0.00      29    58.2
  65    7:40   52.1    38    0.6   359      3.1   955.5    0.00      32    58.1
  65    7:50   52.8    36    1.3   350      3.1   955.6    0.00      32    58.0
  65    8:00   53.4    34    2.0    13      4.5   955.6    0.00      34    58.0
  65    8:10   53.9    33    1.8   357      3.7   955.8    0.00      38    57.9
  65    8:20   54.3    32    1.3    10      3.4   955.8    0.00      39    57.8
  65    8:30   54.6    32    1.2     3      3.9   955.9    0.00      43    57.7
  65    8:40   55.0    32    1.6   360      4.1   955.8    0.00     369    57.7
  65    8:50   55.8    31    1.8    31      3.5   955.9    0.00     498    57.6
  65    9:00   56.4    31    2.5    31      5.0   955.9    0.00     535    57.6
  65    9:10   57.2    30    1.4    22      3.7   955.9    0.00     568    57.5
  65    9:20   57.7    30    0.8    55      3.9   955.9    0.00     598    57.5
  65    9:30   58.6    28    0.9    39      5.2   955.9    0.00     628    57.5
  65    9:40   58.6    28    1.1    47      3.7   955.7    0.00     656    57.4
  65    9:50   59.4    28    1.4    47      3.7   955.6    0.00     683    57.4
  65   10:00   59.7    28    1.4    42      3.9   955.5    0.00     708    57.4
  65   10:10   60.4    27    1.7    52      4.7   955.3    0.00     731    57.3
  65   10:20   61.9    25    1.7    58      4.8   955.2    0.00     755    57.3
  65   10:30   62.4    22    2.9    27      5.6   955.0    0.00     775    57.3
  65   10:40   62.7    21    3.6    44      7.1   954.8    0.00     794    57.3
  65   10:50   63.1    21    4.0    36      8.3   954.7    0.00     808    57.3
  65   11:00   63.4    20    3.9    41      9.6   954.6    0.00     823    57.3
  65   11:10   63.8    20    3.3    52      6.3   954.5    0.00     830    57.4
  65   11:20   64.3    20    2.5    55      5.8   954.3    0.00     843    57.5
  65   11:30   64.4    20    1.9    58      5.3   954.2    0.00     851    57.6
  65   11:40   65.4    19    2.2    33      6.0   954.0    0.00     859    57.7
  65   11:50   65.7    19    2.2    54      6.1   953.8    0.00     863    57.9
  65   12:00   66.7    18    1.6    11      4.7   953.6    0.00     865    58.1
  65   12:10   67.5    16    1.9    25      6.4   953.4    0.00     867    58.3
  65   12:20   68.1    15    2.0    50      6.9   953.2    0.00     863    58.5
  65   12:30   67.7    15    2.6    50      6.6   953.0    0.00     861    58.7

Return to Las Vegas, Nevada graphs page.


Western Regional Climate Center,wrcc@dri.edu